createdAt,value
2017-06-20T00:00:05.683Z,46.33
2017-06-20T00:00:46.146Z,46.14
2017-06-20T00:01:26.623Z,46.33
2017-06-20T00:03:14.433Z,46.14
2017-06-20T00:03:54.891Z,46.14
2017-06-20T00:04:35.351Z,46.24
2017-06-20T00:05:15.809Z,46.33
2017-06-20T00:05:56.270Z,46.14
2017-06-20T00:06:36.729Z,46.24
2017-06-20T00:07:17.189Z,46.33
2017-06-20T00:07:57.651Z,46.24
2017-06-20T00:08:38.109Z,46.24
2017-06-20T00:09:18.569Z,46.24
2017-06-20T00:09:59.031Z,46.14
2017-06-20T00:10:39.490Z,46.24
2017-06-20T00:11:19.943Z,46.33
2017-06-20T00:12:00.400Z,46.24
2017-06-20T00:12:40.861Z,46.24
2017-06-20T00:13:21.308Z,46.14
2017-06-20T00:14:01.766Z,46.24
2017-06-20T00:14:42.223Z,46.24
2017-06-20T00:15:22.682Z,46.33
2017-06-20T00:16:03.142Z,46.24
2017-06-20T00:16:43.597Z,46.33
2017-06-20T00:17:24.056Z,46.04
2017-06-20T00:18:04.516Z,46.04
2017-06-20T00:18:44.973Z,46.24
2017-06-20T00:19:25.431Z,46.14
2017-06-20T00:20:05.890Z,46.14
2017-06-20T00:20:46.348Z,46.04
2017-06-20T00:21:26.811Z,46.04
2017-06-20T00:22:07.258Z,46.04
2017-06-20T00:22:47.716Z,46.14
2017-06-20T00:23:28.179Z,46.33
2017-06-20T00:24:08.640Z,46.33
2017-06-20T00:24:49.115Z,46.24
2017-06-20T00:25:29.578Z,46.14
2017-06-20T00:26:10.039Z,46.04
2017-06-20T00:26:50.500Z,46.14
2017-06-20T00:27:30.956Z,46.33
2017-06-20T00:28:11.419Z,46.33
2017-06-20T00:28:51.878Z,46.33
2017-06-20T00:29:32.337Z,46.33
2017-06-20T00:30:12.799Z,46.14
2017-06-20T00:30:53.258Z,46.33
2017-06-20T00:31:33.716Z,46.14
2017-06-20T00:32:14.174Z,46.33
2017-06-20T00:32:54.637Z,46.14
2017-06-20T00:33:35.095Z,46.14
2017-06-20T00:34:15.558Z,46.14
2017-06-20T00:34:56.018Z,46.12
2017-06-20T00:35:36.477Z,46.24
2017-06-20T00:36:16.936Z,46.24
2017-06-20T00:36:57.395Z,46.24
2017-06-20T00:37:37.853Z,46.14
2017-06-20T00:38:18.307Z,46.14
2017-06-20T00:38:58.764Z,46.22
2017-06-20T00:39:39.228Z,45.85
2017-06-20T00:40:19.679Z,45.95
2017-06-20T00:41:00.137Z,45.95
2017-06-20T00:41:40.609Z,45.75
2017-06-20T00:42:21.067Z,45.85
2017-06-20T00:43:01.522Z,46.04
2017-06-20T00:43:41.976Z,46.33
2017-06-20T00:44:22.435Z,46.33
2017-06-20T00:45:02.892Z,46.22
2017-06-20T00:45:43.349Z,46.43
2017-06-20T00:46:23.799Z,46.33
2017-06-20T00:47:04.254Z,46.43
2017-06-20T00:47:44.715Z,46.33
2017-06-20T00:48:25.171Z,46.02
2017-06-20T00:49:05.630Z,46.33
2017-06-20T00:49:46.093Z,46.31
2017-06-20T00:50:26.549Z,46.22
2017-06-20T00:51:07.008Z,46.31
2017-06-20T00:51:47.473Z,46.31
2017-06-20T00:52:27.927Z,46.22
2017-06-20T00:53:08.389Z,46.02
2017-06-20T00:53:48.845Z,45.83
2017-06-20T00:54:29.303Z,46.33
2017-06-20T00:55:09.775Z,46.41
2017-06-20T00:55:50.235Z,46.24
2017-06-20T00:56:30.690Z,45.83
2017-06-20T00:57:11.150Z,46.14
2017-06-20T00:57:51.605Z,45.85
2017-06-20T00:58:32.063Z,46.02
2017-06-20T00:59:12.555Z,45.95
2017-06-20T00:59:53.012Z,46.02
2017-06-20T01:00:33.476Z,46.31
2017-06-20T01:01:13.933Z,45.92
2017-06-20T01:01:54.391Z,45.92
2017-06-20T01:02:34.847Z,45.73
2017-06-20T01:03:15.305Z,45.73
2017-06-20T01:03:55.762Z,45.85
2017-06-20T01:04:36.235Z,45.92
2017-06-20T01:05:16.678Z,45.92
2017-06-20T01:05:57.140Z,45.95
2017-06-20T01:06:37.597Z,45.83
2017-06-20T01:07:18.058Z,45.95
2017-06-20T01:07:58.517Z,45.83
2017-06-20T01:08:38.966Z,45.95
2017-06-20T01:09:19.431Z,45.92
2017-06-20T01:09:59.893Z,45.83
2017-06-20T01:10:40.347Z,45.83
2017-06-20T01:11:20.806Z,45.75
2017-06-20T01:12:01.263Z,45.92
2017-06-20T01:12:41.724Z,45.85
2017-06-20T01:13:22.183Z,46.31
2017-06-20T01:14:02.642Z,46.33
2017-06-20T01:14:43.107Z,46.22
2017-06-20T01:15:23.560Z,46.31
2017-06-20T01:16:04.019Z,46.14
2017-06-20T01:16:44.479Z,46.33
2017-06-20T01:17:24.939Z,46.12
2017-06-20T01:18:05.397Z,46.12
2017-06-20T01:18:45.854Z,46.31
2017-06-20T01:19:26.318Z,46.43
2017-06-20T01:20:06.776Z,46.24
2017-06-20T01:20:47.235Z,46.14
2017-06-20T01:21:27.696Z,46.24
2017-06-20T01:22:08.153Z,46.43
2017-06-20T01:22:48.612Z,46.02
2017-06-20T01:23:29.071Z,46.14
2017-06-20T01:24:09.529Z,46.41
2017-06-20T01:24:49.984Z,46.41
2017-06-20T01:25:30.441Z,46.62
2017-06-20T01:26:10.898Z,46.41
2017-06-20T01:26:51.357Z,46.6
2017-06-20T01:27:31.820Z,46.7
2017-06-20T01:28:12.280Z,46.31
2017-06-20T01:28:52.738Z,46.8
2017-06-20T01:29:33.196Z,46.8
2017-06-20T01:30:13.660Z,46.89
2017-06-20T01:30:54.118Z,46.89
2017-06-20T01:31:34.582Z,46.89
2017-06-20T01:32:15.042Z,46.8
2017-06-20T01:32:55.499Z,46.8
2017-06-20T01:33:35.963Z,46.7
2017-06-20T01:34:16.421Z,46.7
2017-06-20T01:34:56.877Z,46.7
2017-06-20T01:35:37.334Z,46.8
2017-06-20T01:36:17.793Z,46.6
2017-06-20T01:36:58.250Z,46.31
2017-06-20T01:37:38.708Z,46.31
2017-06-20T01:38:19.169Z,46.31
2017-06-20T01:38:59.629Z,46.51
2017-06-20T01:39:40.090Z,46.6
2017-06-20T01:40:20.547Z,46.7
2017-06-20T01:41:01.009Z,46.6
2017-06-20T01:41:41.480Z,46.7
2017-06-20T01:42:21.938Z,46.8
2017-06-20T01:43:02.395Z,46.8
2017-06-20T01:43:42.856Z,46.89
2017-06-20T01:44:23.315Z,46.7
2017-06-20T01:45:03.765Z,46.7
2017-06-20T01:45:44.225Z,46.7
2017-06-20T01:46:24.688Z,46.7
2017-06-20T01:47:05.154Z,46.7
2017-06-20T01:47:45.611Z,46.7
2017-06-20T01:48:26.069Z,46.8
2017-06-20T01:49:06.530Z,46.7
2017-06-20T01:49:46.986Z,46.7
2017-06-20T01:50:27.444Z,46.7
2017-06-20T01:51:07.901Z,46.6
2017-06-20T01:51:48.358Z,46.7
2017-06-20T01:52:28.818Z,46.7
2017-06-20T01:53:09.276Z,46.31
2017-06-20T01:53:49.732Z,46.31
2017-06-20T01:54:30.218Z,46.41
2017-06-20T01:55:10.675Z,46.51
2017-06-20T01:55:51.131Z,46.51
2017-06-20T01:56:31.589Z,46.31
2017-06-20T01:57:12.046Z,46.51
2017-06-20T01:57:52.508Z,46.41
2017-06-20T01:58:32.962Z,46.31
2017-06-20T01:59:13.425Z,46.41
2017-06-20T01:59:53.883Z,46.39
2017-06-20T02:00:34.344Z,46.41
2017-06-20T02:01:14.803Z,46.41
2017-06-20T02:01:55.262Z,46.48
2017-06-20T02:02:35.721Z,46.6
2017-06-20T02:03:16.179Z,46.58
2017-06-20T02:03:56.639Z,46.48
2017-06-20T02:04:37.099Z,46.39
2017-06-20T02:05:17.561Z,46.51
2017-06-20T02:05:58.022Z,46.48
2017-06-20T02:06:38.479Z,46.67
2017-06-20T02:07:18.951Z,46.58
2017-06-20T02:07:59.405Z,46.58
2017-06-20T02:08:39.862Z,46.87
2017-06-20T02:09:20.327Z,46.87
2017-06-20T02:10:00.785Z,46.51
2017-06-20T02:10:41.247Z,46.67
2017-06-20T02:11:21.705Z,46.39
2017-06-20T02:12:02.175Z,46.77
2017-06-20T02:12:42.629Z,46.48
2017-06-20T02:13:23.094Z,46.58
2017-06-20T02:14:03.549Z,46.58
2017-06-20T02:14:43.993Z,46.77
2017-06-20T02:15:24.451Z,46.58
2017-06-20T02:16:04.908Z,46.67
2017-06-20T02:16:45.367Z,46.58
2017-06-20T02:17:25.824Z,46.58
2017-06-20T02:18:06.285Z,46.7
2017-06-20T02:18:46.743Z,46.48
2017-06-20T02:19:27.204Z,46.58
2017-06-20T02:20:07.661Z,46.48
2017-06-20T02:20:48.121Z,46.58
2017-06-20T02:21:28.578Z,46.58
2017-06-20T02:22:09.038Z,46.67
2017-06-20T02:22:49.494Z,46.48
2017-06-20T02:23:29.957Z,46.48
2017-06-20T02:24:10.406Z,46.67
2017-06-20T02:24:50.870Z,46.39
2017-06-20T02:25:31.331Z,46.39
2017-06-20T02:26:11.788Z,46.29
2017-06-20T02:26:52.245Z,46.39
2017-06-20T02:27:32.705Z,46.39
2017-06-20T02:28:13.162Z,46.48
2017-06-20T02:28:53.621Z,46.39
2017-06-20T02:29:34.085Z,46.48
2017-06-20T02:30:14.543Z,46.67
2017-06-20T02:30:54.997Z,46.58
2017-06-20T02:31:35.453Z,46.48
2017-06-20T02:32:15.912Z,46.39
2017-06-20T02:32:56.370Z,46.87
2017-06-20T02:33:36.828Z,46.67
2017-06-20T02:34:17.290Z,46.48
2017-06-20T02:34:57.748Z,46.58
2017-06-20T02:35:38.205Z,46.67
2017-06-20T02:36:18.663Z,46.77
2017-06-20T02:36:59.122Z,46.87
2017-06-20T02:37:39.581Z,46.58
2017-06-20T02:38:20.040Z,46.58
2017-06-20T02:39:00.496Z,46.87
2017-06-20T02:39:40.956Z,46.77
2017-06-20T02:40:21.420Z,46.87
2017-06-20T02:41:01.880Z,46.87
2017-06-20T02:41:42.335Z,46.87
2017-06-20T02:42:22.791Z,46.87
2017-06-20T02:43:03.247Z,46.97
2017-06-20T02:43:43.708Z,46.97
2017-06-20T02:44:24.179Z,46.97
2017-06-20T02:45:04.639Z,47.16
2017-06-20T02:45:45.096Z,47.26
2017-06-20T02:46:25.555Z,47.16
2017-06-20T02:47:06.011Z,46.87
2017-06-20T02:47:46.472Z,47.06
2017-06-20T02:48:26.929Z,46.67
2017-06-20T02:49:07.385Z,46.97
2017-06-20T02:49:47.844Z,46.67
2017-06-20T02:50:28.304Z,46.67
2017-06-20T02:51:08.765Z,46.87
2017-06-20T02:51:49.227Z,46.87
2017-06-20T02:52:29.687Z,46.67
2017-06-20T02:53:10.141Z,46.87
2017-06-20T02:53:50.605Z,46.87
2017-06-20T02:54:31.065Z,46.87
2017-06-20T02:55:11.525Z,46.58
2017-06-20T02:55:51.986Z,46.67
2017-06-20T02:56:32.447Z,46.58
2017-06-20T02:57:12.907Z,46.87
2017-06-20T02:57:53.373Z,47.06
2017-06-20T02:58:33.833Z,46.87
2017-06-20T02:59:14.291Z,46.97
2017-06-20T02:59:54.751Z,46.87
2017-06-20T03:00:35.208Z,46.87
2017-06-20T03:01:15.680Z,46.87
2017-06-20T03:01:56.140Z,46.87
2017-06-20T03:02:36.598Z,46.87
2017-06-20T03:03:17.057Z,46.97
2017-06-20T03:03:57.515Z,46.87
2017-06-20T03:04:37.972Z,46.87
2017-06-20T03:05:18.430Z,46.77
2017-06-20T03:05:58.890Z,46.77
2017-06-20T03:06:39.346Z,47.16
2017-06-20T03:07:19.804Z,46.77
2017-06-20T03:08:00.264Z,46.87
2017-06-20T03:08:40.724Z,47.26
2017-06-20T03:09:21.190Z,46.97
2017-06-20T03:10:01.659Z,46.97
2017-06-20T03:10:42.111Z,46.77
2017-06-20T03:11:22.574Z,46.58
2017-06-20T03:12:03.032Z,46.77
2017-06-20T03:12:43.494Z,46.67
2017-06-20T03:13:23.983Z,47.16
2017-06-20T03:14:04.443Z,46.67
2017-06-20T03:14:45.038Z,46.87
2017-06-20T03:15:25.504Z,46.87
2017-06-20T03:16:06.003Z,46.87
2017-06-20T03:16:46.467Z,46.77
2017-06-20T03:17:26.930Z,46.77
2017-06-20T03:18:07.387Z,46.77
2017-06-20T03:18:47.844Z,46.87
2017-06-20T03:19:28.305Z,46.87
2017-06-20T03:20:08.767Z,46.87
2017-06-20T03:20:49.231Z,47.26
2017-06-20T03:21:29.692Z,46.58
2017-06-20T03:22:10.150Z,47.26
2017-06-20T03:22:50.609Z,46.87
2017-06-20T03:23:31.059Z,46.97
2017-06-20T03:24:11.518Z,46.77
2017-06-20T03:24:51.975Z,46.77
2017-06-20T03:25:32.435Z,46.77
2017-06-20T03:26:12.893Z,46.77
2017-06-20T03:26:53.351Z,46.97
2017-06-20T03:27:33.808Z,46.97
2017-06-20T03:28:14.300Z,46.58
2017-06-20T03:28:54.729Z,46.58
2017-06-20T03:29:35.187Z,46.67
2017-06-20T03:30:15.666Z,47.06
2017-06-20T03:30:56.125Z,46.77
2017-06-20T03:31:36.585Z,46.77
2017-06-20T03:32:17.043Z,46.48
2017-06-20T03:32:57.506Z,46.67
2017-06-20T03:33:37.959Z,46.97
2017-06-20T03:34:18.416Z,46.97
2017-06-20T03:34:58.872Z,46.87
2017-06-20T03:35:39.350Z,46.58
2017-06-20T03:36:19.810Z,47.26
2017-06-20T03:37:00.269Z,46.87
2017-06-20T03:37:40.774Z,47.16
2017-06-20T03:38:21.233Z,47.26
2017-06-20T03:39:01.694Z,47.26
2017-06-20T03:39:42.142Z,46.87
2017-06-20T03:40:22.603Z,47.55
2017-06-20T03:41:03.060Z,46.97
2017-06-20T03:41:43.524Z,47.64
2017-06-20T03:42:23.983Z,47.64
2017-06-20T03:43:04.444Z,47.55
2017-06-20T03:43:44.903Z,47.36
2017-06-20T03:44:25.363Z,47.36
2017-06-20T03:45:05.830Z,47.64
2017-06-20T03:45:46.283Z,47.55
2017-06-20T03:46:26.742Z,47.55
2017-06-20T03:47:07.208Z,47.26
2017-06-20T03:47:47.672Z,47.64
2017-06-20T03:48:28.133Z,48.03
2017-06-20T03:49:08.595Z,47.94
2017-06-20T03:49:49.059Z,47.64
2017-06-20T03:50:29.516Z,47.84
2017-06-20T03:51:09.976Z,47.74
2017-06-20T03:51:50.430Z,47.84
2017-06-20T03:52:30.891Z,47.74
2017-06-20T03:53:11.354Z,47.74
2017-06-20T03:53:51.813Z,48.01
2017-06-20T03:54:32.272Z,48.3
2017-06-20T03:55:12.732Z,48.2
2017-06-20T03:55:53.193Z,48.3
2017-06-20T03:56:33.652Z,48.59
2017-06-20T03:57:14.106Z,48.3
2017-06-20T03:57:54.566Z,48.52
2017-06-20T03:58:35.019Z,48.22
2017-06-20T03:59:15.481Z,48.3
2017-06-20T03:59:55.942Z,48.42
2017-06-20T04:00:36.393Z,48.52
2017-06-20T04:01:16.858Z,48.39
2017-06-20T04:01:57.323Z,48.3
2017-06-20T04:02:37.771Z,48.01
2017-06-20T04:03:18.232Z,48.22
2017-06-20T04:03:58.692Z,47.91
2017-06-20T04:04:39.152Z,47.74
2017-06-20T04:05:19.608Z,48.03
2017-06-20T04:06:00.067Z,47.52
2017-06-20T04:06:40.521Z,48.03
2017-06-20T04:07:20.977Z,47.62
2017-06-20T04:08:01.434Z,47.43
2017-06-20T04:08:41.887Z,47.74
2017-06-20T04:09:22.347Z,47.45
2017-06-20T04:10:02.803Z,47.84
2017-06-20T04:10:43.264Z,47.84
2017-06-20T04:11:23.722Z,47.84
2017-06-20T04:12:04.182Z,47.84
2017-06-20T04:12:44.646Z,47.84
2017-06-20T04:13:25.102Z,47.94
2017-06-20T04:14:05.561Z,47.84
2017-06-20T04:14:46.017Z,47.94
2017-06-20T04:15:26.477Z,48.03
2017-06-20T04:16:06.932Z,48.03
2017-06-20T04:16:47.389Z,47.84
2017-06-20T04:17:27.854Z,47.55
2017-06-20T04:18:08.313Z,47.74
2017-06-20T04:18:48.774Z,47.64
2017-06-20T04:19:29.235Z,47.64
2017-06-20T04:20:09.695Z,47.74
2017-06-20T04:20:50.150Z,47.36
2017-06-20T04:21:30.610Z,47.16
2017-06-20T04:22:11.069Z,47.26
2017-06-20T04:22:51.532Z,47.16
2017-06-20T04:23:31.990Z,47.45
2017-06-20T04:24:12.452Z,47.64
2017-06-20T04:24:52.916Z,47.55
2017-06-20T04:25:33.372Z,47.55
2017-06-20T04:26:13.830Z,47.45
2017-06-20T04:26:54.285Z,47.36
2017-06-20T04:27:34.751Z,47.45
2017-06-20T04:28:15.213Z,47.64
2017-06-20T04:28:55.675Z,47.64
2017-06-20T04:29:36.134Z,47.26
2017-06-20T04:30:16.591Z,47.64
2017-06-20T04:30:57.052Z,47.64
2017-06-20T04:31:37.500Z,47.55
2017-06-20T04:32:17.961Z,47.74
2017-06-20T04:32:58.423Z,47.64
2017-06-20T04:33:38.892Z,47.55
2017-06-20T04:34:19.352Z,47.64
2017-06-20T04:34:59.814Z,47.55
2017-06-20T04:35:40.271Z,47.55
2017-06-20T04:36:20.732Z,47.36
2017-06-20T04:37:01.187Z,47.55
2017-06-20T04:37:41.654Z,47.45
2017-06-20T04:38:22.120Z,47.64
2017-06-20T04:39:02.571Z,47.45
2017-06-20T04:39:43.031Z,47.45
2017-06-20T04:40:23.490Z,47.36
2017-06-20T04:41:03.949Z,47.64
2017-06-20T04:41:44.419Z,47.26
2017-06-20T04:42:24.881Z,47.45
2017-06-20T04:43:05.338Z,47.55
2017-06-20T04:43:45.800Z,47.36
2017-06-20T04:44:26.255Z,47.36
2017-06-20T04:45:06.717Z,47.19
2017-06-20T04:45:47.174Z,47.36
2017-06-20T04:46:27.633Z,47.16
2017-06-20T04:47:08.093Z,47.45
2017-06-20T04:47:48.549Z,47.26
2017-06-20T04:48:29.007Z,47.64
2017-06-20T04:49:09.467Z,47.45
2017-06-20T04:49:49.925Z,47.55
2017-06-20T04:50:30.384Z,46.97
2017-06-20T04:51:10.842Z,47.55
2017-06-20T04:51:51.301Z,47.55
2017-06-20T04:52:31.761Z,47.45
2017-06-20T04:53:12.219Z,47.64
2017-06-20T04:53:52.680Z,47.64
2017-06-20T04:54:33.139Z,47.64
2017-06-20T04:55:13.599Z,47.64
2017-06-20T04:55:54.058Z,47.64
2017-06-20T04:56:34.518Z,47.57
2017-06-20T04:57:15.016Z,47.36
2017-06-20T04:57:55.477Z,47.36
2017-06-20T04:58:35.934Z,47.64
2017-06-20T04:59:16.394Z,47.36
2017-06-20T04:59:56.849Z,47.36
2017-06-20T05:00:37.302Z,47.47
2017-06-20T05:01:17.765Z,47.38
2017-06-20T05:01:58.221Z,47.38
2017-06-20T05:02:38.683Z,47.55
2017-06-20T05:03:19.175Z,47.36
2017-06-20T05:03:59.727Z,47.36
2017-06-20T05:04:40.186Z,47.45
2017-06-20T05:05:20.653Z,47.45
2017-06-20T05:06:01.112Z,47.45
2017-06-20T05:06:41.579Z,47.55
2017-06-20T05:07:22.034Z,46.99
2017-06-20T05:08:02.495Z,47.28
2017-06-20T05:08:42.957Z,47.28
2017-06-20T05:09:23.413Z,47.28
2017-06-20T05:10:03.871Z,47.36
2017-06-20T05:10:44.333Z,47.47
2017-06-20T05:11:24.788Z,47.47
2017-06-20T05:12:05.242Z,47.47
2017-06-20T05:12:45.712Z,47.09
2017-06-20T05:13:26.170Z,47.09
2017-06-20T05:14:06.633Z,47.26
2017-06-20T05:14:47.092Z,47.36
2017-06-20T05:15:27.550Z,47.28
2017-06-20T05:16:08.011Z,47.57
2017-06-20T05:16:48.468Z,47.19
2017-06-20T05:17:28.927Z,47.28
2017-06-20T05:18:09.387Z,47.28
2017-06-20T05:18:49.850Z,47.09
2017-06-20T05:19:30.309Z,47.19
2017-06-20T05:20:10.784Z,47.28
2017-06-20T05:20:51.243Z,46.99
2017-06-20T05:21:31.699Z,47.38
2017-06-20T05:22:12.159Z,47.28
2017-06-20T05:22:52.619Z,47.19
2017-06-20T05:23:33.083Z,47.47
2017-06-20T05:24:13.541Z,47.28
2017-06-20T05:24:54.003Z,46.99
2017-06-20T05:25:34.461Z,46.99
2017-06-20T05:26:14.920Z,47.57
2017-06-20T05:26:55.378Z,47.47
2017-06-20T05:27:35.835Z,47.67
2017-06-20T05:28:16.294Z,47.57
2017-06-20T05:28:56.756Z,47.38
2017-06-20T05:29:37.223Z,47.67
2017-06-20T05:30:17.683Z,47.38
2017-06-20T05:30:58.141Z,47.47
2017-06-20T05:31:38.597Z,47.64
2017-06-20T05:32:19.057Z,47.47
2017-06-20T05:32:59.513Z,47.67
2017-06-20T05:33:39.973Z,47.57
2017-06-20T05:34:20.429Z,47.57
2017-06-20T05:35:00.886Z,47.67
2017-06-20T05:35:41.346Z,47.67
2017-06-20T05:36:21.811Z,47.57
2017-06-20T05:37:02.275Z,47.67
2017-06-20T05:37:42.736Z,47.67
2017-06-20T05:38:23.195Z,47.67
2017-06-20T05:39:03.655Z,47.38
2017-06-20T05:39:44.120Z,47.67
2017-06-20T05:40:24.579Z,47.47
2017-06-20T05:41:05.035Z,47.28
2017-06-20T05:41:45.498Z,47.67
2017-06-20T05:42:25.956Z,47.28
2017-06-20T05:43:06.413Z,47.57
2017-06-20T05:43:46.875Z,47.57
2017-06-20T05:44:27.333Z,47.57
2017-06-20T05:45:07.790Z,47.47
2017-06-20T05:45:48.271Z,46.99
2017-06-20T05:46:28.733Z,46.99
2017-06-20T05:47:09.197Z,47.19
2017-06-20T05:47:49.645Z,47.28
2017-06-20T05:48:30.105Z,47.28
2017-06-20T05:49:10.568Z,47.47
2017-06-20T05:49:51.019Z,47.47
2017-06-20T05:50:31.473Z,47.28
2017-06-20T05:51:11.936Z,46.89
2017-06-20T05:51:52.396Z,46.92
2017-06-20T05:52:32.855Z,47.19
2017-06-20T05:53:13.317Z,47.2
2017-06-20T05:53:53.775Z,47.3
2017-06-20T05:54:34.240Z,47.3
2017-06-20T05:55:14.700Z,47.28
2017-06-20T05:55:55.159Z,47.28
2017-06-20T05:56:35.619Z,47.28
2017-06-20T05:57:16.078Z,47.38
2017-06-20T05:57:56.540Z,47.3
2017-06-20T05:58:37.000Z,46.92
2017-06-20T05:59:17.457Z,47.09
2017-06-20T05:59:57.917Z,46.92
2017-06-20T06:00:38.373Z,46.82
2017-06-20T06:01:18.833Z,47.28
2017-06-20T06:01:59.290Z,47.2
2017-06-20T06:02:39.746Z,46.92
2017-06-20T06:03:20.207Z,47.02
2017-06-20T06:04:00.664Z,47.2
2017-06-20T06:04:41.130Z,46.92
2017-06-20T06:05:21.587Z,46.7
2017-06-20T06:06:02.044Z,46.82
2017-06-20T06:06:42.502Z,46.82
2017-06-20T06:07:22.960Z,47.11
2017-06-20T06:08:03.419Z,46.82
2017-06-20T06:08:43.872Z,46.92
2017-06-20T06:09:24.359Z,46.82
2017-06-20T06:10:04.821Z,47.2
2017-06-20T06:10:45.282Z,46.92
2017-06-20T06:11:25.750Z,46.92
2017-06-20T06:12:06.208Z,46.72
2017-06-20T06:12:46.670Z,46.82
2017-06-20T06:13:27.126Z,46.92
2017-06-20T06:14:07.575Z,46.92
2017-06-20T06:14:48.035Z,47.02
2017-06-20T06:15:28.494Z,46.62
2017-06-20T06:16:08.953Z,46.92
2017-06-20T06:16:49.419Z,46.82
2017-06-20T06:17:29.881Z,47.2
2017-06-20T06:18:10.340Z,47.2
2017-06-20T06:18:50.798Z,47.2
2017-06-20T06:19:31.259Z,46.92
2017-06-20T06:20:11.717Z,47.02
2017-06-20T06:20:52.174Z,46.72
2017-06-20T06:21:32.634Z,46.82
2017-06-20T06:22:13.098Z,46.82
2017-06-20T06:22:53.558Z,46.53
2017-06-20T06:23:34.019Z,46.62
2017-06-20T06:24:14.480Z,46.62
2017-06-20T06:24:54.938Z,46.82
2017-06-20T06:25:35.395Z,46.84
2017-06-20T06:26:15.853Z,46.92
2017-06-20T06:26:56.312Z,46.92
2017-06-20T06:27:36.769Z,46.82
2017-06-20T06:28:17.225Z,46.82
2017-06-20T06:28:57.684Z,46.82
2017-06-20T06:29:38.143Z,46.82
2017-06-20T06:30:18.609Z,47.02
2017-06-20T06:30:59.066Z,47.02
2017-06-20T06:31:39.522Z,46.82
2017-06-20T06:32:19.981Z,47.02
2017-06-20T06:33:00.439Z,46.62
2017-06-20T06:33:40.899Z,46.65
2017-06-20T06:34:21.361Z,47.2
2017-06-20T06:35:01.823Z,47.2
2017-06-20T06:35:42.282Z,46.84
2017-06-20T06:36:22.744Z,46.92
2017-06-20T06:37:03.204Z,46.92
2017-06-20T06:37:43.665Z,46.72
2017-06-20T06:38:24.124Z,46.84
2017-06-20T06:39:04.582Z,46.94
2017-06-20T06:39:45.039Z,46.92
2017-06-20T06:40:25.499Z,46.75
2017-06-20T06:41:05.956Z,46.92
2017-06-20T06:41:46.417Z,46.94
2017-06-20T06:42:26.879Z,46.94
2017-06-20T06:43:07.338Z,46.94
2017-06-20T06:43:47.799Z,46.94
2017-06-20T06:44:28.259Z,46.65
2017-06-20T06:45:08.720Z,46.65
2017-06-20T06:45:49.188Z,47.03
2017-06-20T06:46:29.638Z,46.94
2017-06-20T06:47:10.099Z,46.94
2017-06-20T06:47:50.558Z,47.03
2017-06-20T06:48:31.020Z,46.65
2017-06-20T06:49:11.478Z,46.94
2017-06-20T06:49:51.936Z,46.65
2017-06-20T06:50:32.397Z,46.75
2017-06-20T06:51:12.859Z,46.84
2017-06-20T06:51:53.316Z,46.75
2017-06-20T06:52:33.779Z,47.03
2017-06-20T06:53:14.237Z,47.03
2017-06-20T06:53:54.694Z,46.65
2017-06-20T06:54:35.157Z,47.03
2017-06-20T06:55:15.615Z,46.65
2017-06-20T06:55:56.077Z,47.03
2017-06-20T06:56:36.538Z,47.23
2017-06-20T06:57:16.995Z,46.94
2017-06-20T06:57:57.455Z,46.94
2017-06-20T06:58:37.941Z,46.84
2017-06-20T06:59:18.373Z,46.65
2017-06-20T06:59:58.835Z,46.65
2017-06-20T07:00:39.293Z,46.75
2017-06-20T07:01:19.754Z,46.55
2017-06-20T07:02:00.212Z,46.55
2017-06-20T07:02:40.671Z,46.45
2017-06-20T07:03:21.126Z,46.36
2017-06-20T07:04:01.585Z,46.36
2017-06-20T07:04:42.045Z,46.65
2017-06-20T07:05:22.504Z,46.55
2017-06-20T07:06:02.962Z,46.45
2017-06-20T07:06:43.420Z,46.55
2017-06-20T07:07:23.879Z,46.84
2017-06-20T07:08:04.342Z,46.84
2017-06-20T07:08:44.800Z,46.86
2017-06-20T07:09:25.253Z,46.84
2017-06-20T07:10:05.722Z,46.96
2017-06-20T07:10:46.181Z,46.94
2017-06-20T07:11:26.639Z,46.77
2017-06-20T07:12:07.097Z,46.77
2017-06-20T07:12:47.559Z,46.86
2017-06-20T07:13:28.030Z,46.86
2017-06-20T07:14:08.488Z,46.77
2017-06-20T07:14:48.949Z,46.86
2017-06-20T07:15:29.413Z,46.26
2017-06-20T07:16:09.879Z,46.86
2017-06-20T07:16:50.325Z,46.19
2017-06-20T07:17:30.787Z,46.19
2017-06-20T07:18:11.248Z,46.19
2017-06-20T07:18:51.708Z,46.28
2017-06-20T07:19:32.168Z,46.48
2017-06-20T07:20:12.631Z,46.38
2017-06-20T07:20:53.117Z,46.38
2017-06-20T07:21:33.552Z,46.48
2017-06-20T07:22:14.011Z,46.09
2017-06-20T07:22:54.473Z,46.28
2017-06-20T07:23:34.938Z,45.89
2017-06-20T07:24:15.400Z,45.89
2017-06-20T07:24:55.863Z,45.99
2017-06-20T07:25:36.321Z,46.09
2017-06-20T07:26:16.783Z,46.09
2017-06-20T07:26:57.240Z,46.09
2017-06-20T07:27:37.704Z,46.28
2017-06-20T07:28:18.166Z,46.28
2017-06-20T07:28:58.621Z,46.09
2017-06-20T07:29:39.082Z,46.38
2017-06-20T07:30:19.550Z,46.19
2017-06-20T07:31:00.008Z,46.38
2017-06-20T07:31:40.465Z,46.38
2017-06-20T07:32:20.925Z,46.09
2017-06-20T07:33:01.386Z,46.09
2017-06-20T07:33:41.848Z,46.09
2017-06-20T07:34:22.310Z,46.09
2017-06-20T07:35:02.767Z,46.28
2017-06-20T07:35:43.227Z,46.28
2017-06-20T07:36:23.724Z,46.19
2017-06-20T07:37:04.192Z,46.28
2017-06-20T07:37:44.678Z,46.19
2017-06-20T07:38:25.137Z,46.38
2017-06-20T07:39:05.595Z,46.28
2017-06-20T07:39:46.058Z,46.31
2017-06-20T07:40:26.519Z,46.11
2017-06-20T07:41:06.979Z,46.09
2017-06-20T07:41:47.440Z,46.21
2017-06-20T07:42:27.900Z,46.38
2017-06-20T07:43:08.365Z,46.41
2017-06-20T07:43:48.819Z,46.31
2017-06-20T07:44:29.279Z,46.31
2017-06-20T07:45:09.740Z,46.31
2017-06-20T07:45:50.197Z,46.31
2017-06-20T07:46:30.655Z,45.72
2017-06-20T07:47:11.115Z,45.99
2017-06-20T07:47:51.570Z,45.72
2017-06-20T07:48:32.030Z,45.92
2017-06-20T07:49:12.490Z,45.82
2017-06-20T07:49:52.952Z,45.92
2017-06-20T07:50:33.415Z,46.01
2017-06-20T07:51:13.871Z,46.01
2017-06-20T07:51:54.329Z,46.11
2017-06-20T07:52:34.788Z,46.11
2017-06-20T07:53:15.247Z,45.92
2017-06-20T07:53:55.705Z,46.01
2017-06-20T07:54:36.162Z,46.21
2017-06-20T07:55:16.620Z,46.01
2017-06-20T07:55:57.074Z,46.01
2017-06-20T07:56:37.536Z,46.01
2017-06-20T07:57:17.994Z,46.01
2017-06-20T07:57:58.456Z,46.11
2017-06-20T07:58:38.914Z,45.92
2017-06-20T07:59:19.429Z,46.01
2017-06-20T07:59:59.877Z,46.11
2017-06-20T08:00:40.338Z,45.62
2017-06-20T08:01:20.799Z,45.82
2017-06-20T08:02:01.262Z,45.82
2017-06-20T08:02:41.723Z,45.82
2017-06-20T08:03:22.182Z,45.34
2017-06-20T08:04:02.644Z,45.62
2017-06-20T08:04:43.108Z,45.53
2017-06-20T08:05:23.576Z,45.62
2017-06-20T08:06:04.034Z,45.53
2017-06-20T08:06:44.473Z,45.43
2017-06-20T08:07:24.934Z,45.62
2017-06-20T08:08:05.415Z,45.62
2017-06-20T08:08:45.873Z,45.43
2017-06-20T08:09:26.336Z,45.34
2017-06-20T08:10:06.797Z,45.53
2017-06-20T08:10:47.263Z,45.43
2017-06-20T08:11:27.733Z,45.14
2017-06-20T08:12:08.291Z,45.14
2017-06-20T08:12:48.756Z,45.14
2017-06-20T08:13:29.212Z,45.14
2017-06-20T08:14:09.667Z,45.24
2017-06-20T08:14:50.127Z,45.36
2017-06-20T08:15:30.585Z,45.34
2017-06-20T08:16:11.078Z,45.34
2017-06-20T08:16:51.537Z,45.17
2017-06-20T08:17:32.001Z,45.36
2017-06-20T08:18:12.640Z,45.36
2017-06-20T08:18:53.030Z,45.26
2017-06-20T08:19:33.491Z,45.36
2017-06-20T08:20:14.020Z,45.17
2017-06-20T08:20:54.394Z,45.07
2017-06-20T08:21:34.856Z,45.17
2017-06-20T08:22:15.331Z,44.97
2017-06-20T08:22:55.791Z,45.36
2017-06-20T08:23:36.248Z,45.26
2017-06-20T08:24:16.698Z,45.45
2017-06-20T08:24:57.155Z,45.26
2017-06-20T08:25:37.614Z,45.26
2017-06-20T08:26:18.077Z,45.07
2017-06-20T08:26:58.533Z,45.26
2017-06-20T08:27:38.991Z,45.26
2017-06-20T08:28:19.465Z,45.36
2017-06-20T08:28:59.897Z,45.07
2017-06-20T08:29:40.355Z,44.87
2017-06-20T08:30:20.816Z,44.78
2017-06-20T08:31:01.271Z,44.87
2017-06-20T08:31:41.755Z,44.87
2017-06-20T08:32:22.199Z,44.78
2017-06-20T08:33:02.653Z,44.78
2017-06-20T08:33:43.114Z,44.87
2017-06-20T08:34:23.571Z,44.68
2017-06-20T08:35:04.031Z,44.89
2017-06-20T08:35:44.490Z,45.09
2017-06-20T08:36:24.952Z,45.07
2017-06-20T08:37:05.409Z,45.09
2017-06-20T08:37:45.870Z,45.09
2017-06-20T08:38:26.325Z,45.09
2017-06-20T08:39:06.777Z,44.99
2017-06-20T08:39:47.240Z,44.51
2017-06-20T08:40:27.698Z,44.7
2017-06-20T08:41:08.163Z,44.41
2017-06-20T08:41:48.622Z,44.51
2017-06-20T08:42:29.085Z,44.7
2017-06-20T08:43:09.541Z,44.51